首页
METAR-TAF:

METAR-TAF

机场 :

Easton, 马里兰州, 美国

纬度: 38-48N, 经度: 076-04W, 海拔: 22米

当前天气观测

该预报发布于17分钟前的15:50 UTC
风速4节,风向西转西北
温度 7°C
湿度 93%
气压 1027 hPa
能見度: 11.3公里
阴天层高于500英尺

METAR: KESN 131550Z 30004KT 7SM OVC005 07/06 A3033

时间: 11:07 (16:07 UTC)


TAF: 丢失

超过4000个机场的气象观测和天气预报(METAR&TAF报告)。

可查询的气象台以黄色和红色小点在地图上表示。

将鼠标移到小点上方,可查看气象台名称。

然后点击查看天气观测和预报。

如需切换地图:点击带黑十字的绿色按钮放大地图;点击带横线的绿色按钮缩小地图;或者点击绿色箭头查看邻近地区的地图。


METAR-TAF: